sensor_id;sensor_type;location;lat;lon;timestamp;temperature;humidity
66752;SHT31;53663;42.676;23.238;2023-09-18T00:02:07;16.29;82.03
66752;SHT31;53663;42.676;23.238;2023-09-18T00:04:32;16.31;81.63
66752;SHT31;53663;42.676;23.238;2023-09-18T00:06:59;16.36;81.66
66752;SHT31;53663;42.676;23.238;2023-09-18T00:09:24;16.29;81.67
66752;SHT31;53663;42.676;23.238;2023-09-18T00:11:50;16.37;81.33
66752;SHT31;53663;42.676;23.238;2023-09-18T00:14:15;16.34;81.47
66752;SHT31;53663;42.676;23.238;2023-09-18T00:16:41;16.34;81.76
66752;SHT31;53663;42.676;23.238;2023-09-18T00:19:06;16.37;82.13
66752;SHT31;53663;42.676;23.238;2023-09-18T00:21:36;16.47;81.85
66752;SHT31;53663;42.676;23.238;2023-09-18T00:24:02;16.48;81.81
66752;SHT31;53663;42.676;23.238;2023-09-18T00:26:28;16.48;81.94
66752;SHT31;53663;42.676;23.238;2023-09-18T00:28:54;16.50;82.01
66752;SHT31;53663;42.676;23.238;2023-09-18T00:31:19;16.56;82.09
66752;SHT31;53663;42.676;23.238;2023-09-18T00:33:45;16.50;82.34
66752;SHT31;53663;42.676;23.238;2023-09-18T00:36:10;16.56;82.48
66752;SHT31;53663;42.676;23.238;2023-09-18T00:38:36;16.44;82.92
66752;SHT31;53663;42.676;23.238;2023-09-18T00:41:01;16.48;83.25
66752;SHT31;53663;42.676;23.238;2023-09-18T00:43:27;16.53;83.23
66752;SHT31;53663;42.676;23.238;2023-09-18T00:45:53;16.67;82.85
66752;SHT31;53663;42.676;23.238;2023-09-18T00:48:19;16.64;82.95
66752;SHT31;53663;42.676;23.238;2023-09-18T00:50:45;16.68;83.00
66752;SHT31;53663;42.676;23.238;2023-09-18T00:53:15;16.75;82.75
66752;SHT31;53663;42.676;23.238;2023-09-18T00:55:41;16.78;82.94
66752;SHT31;53663;42.676;23.238;2023-09-18T00:58:07;16.79;82.96
66752;SHT31;53663;42.676;23.238;2023-09-18T01:00:32;16.96;82.66
66752;SHT31;53663;42.676;23.238;2023-09-18T01:02:58;16.92;82.62
66752;SHT31;53663;42.676;23.238;2023-09-18T01:05:24;16.89;82.78
66752;SHT31;53663;42.676;23.238;2023-09-18T01:07:50;16.89;82.69
66752;SHT31;53663;42.676;23.238;2023-09-18T01:10:16;16.84;82.98
66752;SHT31;53663;42.676;23.238;2023-09-18T01:12:52;16.98;82.70
66752;SHT31;53663;42.676;23.238;2023-09-18T01:15:27;17.09;82.51
66752;SHT31;53663;42.676;23.238;2023-09-18T01:17:55;17.04;82.43
66752;SHT31;53663;42.676;23.238;2023-09-18T01:20:21;17.06;82.48
66752;SHT31;53663;42.676;23.238;2023-09-18T01:22:46;17.09;82.49
66752;SHT31;53663;42.676;23.238;2023-09-18T01:25:14;17.11;82.26
66752;SHT31;53663;42.676;23.238;2023-09-18T01:27:39;17.06;82.45
66752;SHT31;53663;42.676;23.238;2023-09-18T01:30:05;17.11;82.19
66752;SHT31;53663;42.676;23.238;2023-09-18T01:32:32;17.12;82.13
66752;SHT31;53663;42.676;23.238;2023-09-18T01:35:00;17.14;82.13
66752;SHT31;53663;42.676;23.238;2023-09-18T01:37:28;17.04;82.34
66752;SHT31;53663;42.676;23.238;2023-09-18T01:39:54;16.95;82.67
66752;SHT31;53663;42.676;23.238;2023-09-18T01:42:23;17.11;82.06
66752;SHT31;53663;42.676;23.238;2023-09-18T01:44:49;17.09;81.93
66752;SHT31;53663;42.676;23.238;2023-09-18T01:47:19;17.11;81.79
66752;SHT31;53663;42.676;23.238;2023-09-18T01:49:44;17.11;81.75
66752;SHT31;53663;42.676;23.238;2023-09-18T01:52:11;16.98;81.98
66752;SHT31;53663;42.676;23.238;2023-09-18T01:54:37;16.98;82.10
66752;SHT31;53663;42.676;23.238;2023-09-18T01:57:03;16.96;82.29
66752;SHT31;53663;42.676;23.238;2023-09-18T01:59:29;16.91;82.03
66752;SHT31;53663;42.676;23.238;2023-09-18T02:01:54;16.77;82.35
66752;SHT31;53663;42.676;23.238;2023-09-18T02:04:21;16.69;82.64
66752;SHT31;53663;42.676;23.238;2023-09-18T02:06:49;16.67;82.35
66752;SHT31;53663;42.676;23.238;2023-09-18T02:09:15;16.67;82.74
66752;SHT31;53663;42.676;23.238;2023-09-18T02:11:43;16.71;82.28
66752;SHT31;53663;42.676;23.238;2023-09-18T02:14:09;16.68;82.28
66752;SHT31;53663;42.676;23.238;2023-09-18T02:16:40;16.63;82.40
66752;SHT31;53663;42.676;23.238;2023-09-18T02:19:13;16.51;82.62
66752;SHT31;53663;42.676;23.238;2023-09-18T02:21:42;16.41;83.20
66752;SHT31;53663;42.676;23.238;2023-09-18T02:24:08;16.34;83.48
66752;SHT31;53663;42.676;23.238;2023-09-18T02:26:34;16.47;83.01
66752;SHT31;53663;42.676;23.238;2023-09-18T02:29:02;16.53;82.71
66752;SHT31;53663;42.676;23.238;2023-09-18T02:31:29;16.64;82.48
66752;SHT31;53663;42.676;23.238;2023-09-18T02:33:55;16.53;82.85
66752;SHT31;53663;42.676;23.238;2023-09-18T02:36:21;16.61;82.52
66752;SHT31;53663;42.676;23.238;2023-09-18T02:38:48;16.50;82.70
66752;SHT31;53663;42.676;23.238;2023-09-18T02:41:13;16.27;83.51
66752;SHT31;53663;42.676;23.238;2023-09-18T02:43:39;16.33;83.36
66752;SHT31;53663;42.676;23.238;2023-09-18T02:46:05;16.36;83.44
66752;SHT31;53663;42.676;23.238;2023-09-18T02:48:31;16.44;83.12
66752;SHT31;53663;42.676;23.238;2023-09-18T02:50:59;16.54;82.71
66752;SHT31;53663;42.676;23.238;2023-09-18T02:53:25;16.64;82.44
66752;SHT31;53663;42.676;23.238;2023-09-18T02:55:52;16.75;82.38
66752;SHT31;53663;42.676;23.238;2023-09-18T02:58:18;16.88;81.87
66752;SHT31;53663;42.676;23.238;2023-09-18T03:00:48;16.94;81.88
66752;SHT31;53663;42.676;23.238;2023-09-18T03:03:15;16.98;81.70
66752;SHT31;53663;42.676;23.238;2023-09-18T03:05:41;16.85;81.88
66752;SHT31;53663;42.676;23.238;2023-09-18T03:08:08;16.71;82.46
66752;SHT31;53663;42.676;23.238;2023-09-18T03:10:35;16.77;82.46
66752;SHT31;53663;42.676;23.238;2023-09-18T03:13:01;16.82;82.50
66752;SHT31;53663;42.676;23.238;2023-09-18T03:15:28;16.86;82.37
66752;SHT31;53663;42.676;23.238;2023-09-18T03:17:54;16.69;82.76
66752;SHT31;53663;42.676;23.238;2023-09-18T03:20:24;16.72;82.47
66752;SHT31;53663;42.676;23.238;2023-09-18T03:22:57;16.79;82.00
66752;SHT31;53663;42.676;23.238;2023-09-18T03:25:24;16.58;82.36
66752;SHT31;53663;42.676;23.238;2023-09-18T03:27:52;16.57;82.61
66752;SHT31;53663;42.676;23.238;2023-09-18T03:30:19;16.64;82.48
66752;SHT31;53663;42.676;23.238;2023-09-18T03:32:45;16.60;82.60
66752;SHT31;53663;42.676;23.238;2023-09-18T03:35:11;16.60;82.73
66752;SHT31;53663;42.676;23.238;2023-09-18T03:37:49;16.64;82.62
66752;SHT31;53663;42.676;23.238;2023-09-18T03:40:18;16.75;82.28
66752;SHT31;53663;42.676;23.238;2023-09-18T03:42:45;16.79;82.02
66752;SHT31;53663;42.676;23.238;2023-09-18T03:45:11;16.84;81.74
66752;SHT31;53663;42.676;23.238;2023-09-18T03:47:38;16.85;81.53
66752;SHT31;53663;42.676;23.238;2023-09-18T03:50:08;16.86;81.35
66752;SHT31;53663;42.676;23.238;2023-09-18T03:52:34;16.68;81.74
66752;SHT31;53663;42.676;23.238;2023-09-18T03:54:59;16.61;81.94
66752;SHT31;53663;42.676;23.238;2023-09-18T03:57:25;16.53;82.05
66752;SHT31;53663;42.676;23.238;2023-09-18T03:59:50;16.46;82.24
66752;SHT31;53663;42.676;23.238;2023-09-18T04:02:16;16.41;82.25
66752;SHT31;53663;42.676;23.238;2023-09-18T04:04:41;16.54;81.66
66752;SHT31;53663;42.676;23.238;2023-09-18T04:07:08;16.48;81.75
66752;SHT31;53663;42.676;23.238;2023-09-18T04:09:33;16.46;82.00
66752;SHT31;53663;42.676;23.238;2023-09-18T04:12:01;16.47;81.93
66752;SHT31;53663;42.676;23.238;2023-09-18T04:14:26;16.46;81.87
66752;SHT31;53663;42.676;23.238;2023-09-18T04:16:52;16.51;81.81
66752;SHT31;53663;42.676;23.238;2023-09-18T04:19:18;16.44;81.96
66752;SHT31;53663;42.676;23.238;2023-09-18T04:21:44;16.53;82.05
66752;SHT31;53663;42.676;23.238;2023-09-18T04:24:09;16.50;81.88
66752;SHT31;53663;42.676;23.238;2023-09-18T04:26:35;16.60;81.80
66752;SHT31;53663;42.676;23.238;2023-09-18T04:29:00;16.61;81.75
66752;SHT31;53663;42.676;23.238;2023-09-18T04:31:27;16.68;81.55
66752;SHT31;53663;42.676;23.238;2023-09-18T04:33:54;16.67;81.66
66752;SHT31;53663;42.676;23.238;2023-09-18T04:36:19;16.61;82.12
66752;SHT31;53663;42.676;23.238;2023-09-18T04:38:45;16.60;82.20
66752;SHT31;53663;42.676;23.238;2023-09-18T04:41:11;16.51;82.25
66752;SHT31;53663;42.676;23.238;2023-09-18T04:43:37;16.69;81.78
66752;SHT31;53663;42.676;23.238;2023-09-18T04:46:05;16.88;81.33
66752;SHT31;53663;42.676;23.238;2023-09-18T04:48:32;16.98;81.01
66752;SHT31;53663;42.676;23.238;2023-09-18T04:50:59;17.12;80.63
66752;SHT31;53663;42.676;23.238;2023-09-18T04:53:27;17.15;80.56
66752;SHT31;53663;42.676;23.238;2023-09-18T04:55:53;17.11;80.68
66752;SHT31;53663;42.676;23.238;2023-09-18T04:58:19;17.12;80.79
66752;SHT31;53663;42.676;23.238;2023-09-18T05:00:44;17.11;80.75
66752;SHT31;53663;42.676;23.238;2023-09-18T05:03:10;17.26;80.32
66752;SHT31;53663;42.676;23.238;2023-09-18T05:05:36;17.27;80.26
66752;SHT31;53663;42.676;23.238;2023-09-18T05:08:04;17.36;79.62
66752;SHT31;53663;42.676;23.238;2023-09-18T05:10:33;17.50;79.43
66752;SHT31;53663;42.676;23.238;2023-09-18T05:12:59;17.51;79.31
66752;SHT31;53663;42.676;23.238;2023-09-18T05:15:25;17.50;79.28
66752;SHT31;53663;42.676;23.238;2023-09-18T05:17:52;17.62;79.19
66752;SHT31;53663;42.676;23.238;2023-09-18T05:20:20;17.78;78.55
66752;SHT31;53663;42.676;23.238;2023-09-18T05:22:49;18.00;77.54
66752;SHT31;53663;42.676;23.238;2023-09-18T05:25:15;18.19;76.78
66752;SHT31;53663;42.676;23.238;2023-09-18T05:27:41;18.25;76.76
66752;SHT31;53663;42.676;23.238;2023-09-18T05:30:19;18.38;76.51
66752;SHT31;53663;42.676;23.238;2023-09-18T05:32:48;18.42;76.13
66752;SHT31;53663;42.676;23.238;2023-09-18T05:35:14;18.48;76.39
66752;SHT31;53663;42.676;23.238;2023-09-18T05:37:43;18.41;76.71
66752;SHT31;53663;42.676;23.238;2023-09-18T05:40:10;18.33;76.94
66752;SHT31;53663;42.676;23.238;2023-09-18T05:42:37;18.35;76.83
66752;SHT31;53663;42.676;23.238;2023-09-18T05:45:04;18.25;76.60
66752;SHT31;53663;42.676;23.238;2023-09-18T05:47:32;18.21;76.82
66752;SHT31;53663;42.676;23.238;2023-09-18T05:49:57;18.11;77.23
66752;SHT31;53663;42.676;23.238;2023-09-18T05:52:23;17.92;77.86
66752;SHT31;53663;42.676;23.238;2023-09-18T05:54:49;17.87;78.11
66752;SHT31;53663;42.676;23.238;2023-09-18T05:57:15;18.02;78.17
66752;SHT31;53663;42.676;23.238;2023-09-18T05:59:41;18.06;77.62
66752;SHT31;53663;42.676;23.238;2023-09-18T06:02:10;18.09;77.67
66752;SHT31;53663;42.676;23.238;2023-09-18T06:04:36;17.98;77.43
66752;SHT31;53663;42.676;23.238;2023-09-18T06:07:05;17.94;77.91
66752;SHT31;53663;42.676;23.238;2023-09-18T06:09:31;17.98;77.53
66752;SHT31;53663;42.676;23.238;2023-09-18T06:11:56;17.95;77.84
66752;SHT31;53663;42.676;23.238;2023-09-18T06:14:22;17.94;77.24
66752;SHT31;53663;42.676;23.238;2023-09-18T06:16:48;18.11;76.54
66752;SHT31;53663;42.676;23.238;2023-09-18T06:19:14;17.84;77.36
66752;SHT31;53663;42.676;23.238;2023-09-18T06:21:40;17.74;78.02
66752;SHT31;53663;42.676;23.238;2023-09-18T06:24:06;17.87;77.39
66752;SHT31;53663;42.676;23.238;2023-09-18T06:26:31;18.02;76.97
66752;SHT31;53663;42.676;23.238;2023-09-18T06:28:57;17.95;77.42
66752;SHT31;53663;42.676;23.238;2023-09-18T06:31:22;17.90;77.60
66752;SHT31;53663;42.676;23.238;2023-09-18T06:33:48;18.01;77.86
66752;SHT31;53663;42.676;23.238;2023-09-18T06:36:14;18.12;76.83
66752;SHT31;53663;42.676;23.238;2023-09-18T06:38:39;18.64;75.24
66752;SHT31;53663;42.676;23.238;2023-09-18T06:41:05;18.87;74.38
66752;SHT31;53663;42.676;23.238;2023-09-18T06:43:30;19.17;73.21
66752;SHT31;53663;42.676;23.238;2023-09-18T06:45:56;19.34;73.17
66752;SHT31;53663;42.676;23.238;2023-09-18T06:48:24;19.61;72.27
66752;SHT31;53663;42.676;23.238;2023-09-18T06:50:49;20.40;69.44
66752;SHT31;53663;42.676;23.238;2023-09-18T06:53:15;20.75;68.82
66752;SHT31;53663;42.676;23.238;2023-09-18T06:55:40;21.18;66.02
66752;SHT31;53663;42.676;23.238;2023-09-18T06:58:06;21.41;64.81
66752;SHT31;53663;42.676;23.238;2023-09-18T07:00:32;21.58;64.77
66752;SHT31;53663;42.676;23.238;2023-09-18T07:02:57;21.16;65.78
66752;SHT31;53663;42.676;23.238;2023-09-18T07:05:23;20.72;66.90
66752;SHT31;53663;42.676;23.238;2023-09-18T07:07:48;20.48;67.92
66752;SHT31;53663;42.676;23.238;2023-09-18T07:10:14;20.58;68.01
66752;SHT31;53663;42.676;23.238;2023-09-18T07:12:39;20.59;67.73
66752;SHT31;53663;42.676;23.238;2023-09-18T07:15:05;20.47;69.40
66752;SHT31;53663;42.676;23.238;2023-09-18T07:17:32;20.34;68.21
66752;SHT31;53663;42.676;23.238;2023-09-18T07:19:57;20.47;68.23
66752;SHT31;53663;42.676;23.238;2023-09-18T07:22:23;20.30;68.54
66752;SHT31;53663;42.676;23.238;2023-09-18T07:24:48;20.52;67.88
66752;SHT31;53663;42.676;23.238;2023-09-18T07:27:14;21.04;66.90
66752;SHT31;53663;42.676;23.238;2023-09-18T07:29:40;21.30;65.87
66752;SHT31;53663;42.676;23.238;2023-09-18T07:32:05;21.87;64.53
66752;SHT31;53663;42.676;23.238;2023-09-18T07:34:31;23.46;60.56
66752;SHT31;53663;42.676;23.238;2023-09-18T07:36:57;24.45;57.73
66752;SHT31;53663;42.676;23.238;2023-09-18T07:39:22;23.59;58.72
66752;SHT31;53663;42.676;23.238;2023-09-18T07:41:48;24.09;57.38
66752;SHT31;53663;42.676;23.238;2023-09-18T07:44:19;24.73;54.97
66752;SHT31;53663;42.676;23.238;2023-09-18T07:46:46;26.35;50.42
66752;SHT31;53663;42.676;23.238;2023-09-18T07:49:11;24.90;53.46
66752;SHT31;53663;42.676;23.238;2023-09-18T07:51:37;24.58;54.69
66752;SHT31;53663;42.676;23.238;2023-09-18T07:54:03;25.70;51.93
66752;SHT31;53663;42.676;23.238;2023-09-18T07:56:28;25.47;52.78
66752;SHT31;53663;42.676;23.238;2023-09-18T07:58:58;25.44;52.12
66752;SHT31;53663;42.676;23.238;2023-09-18T08:01:24;27.07;48.99
66752;SHT31;53663;42.676;23.238;2023-09-18T08:03:50;29.72;42.97
66752;SHT31;53663;42.676;23.238;2023-09-18T08:06:15;30.52;40.86
66752;SHT31;53663;42.676;23.238;2023-09-18T08:08:43;31.02;39.63
66752;SHT31;53663;42.676;23.238;2023-09-18T08:11:09;30.33;40.49
66752;SHT31;53663;42.676;23.238;2023-09-18T08:13:35;29.22;43.89
66752;SHT31;53663;42.676;23.238;2023-09-18T08:16:01;31.38;39.90
66752;SHT31;53663;42.676;23.238;2023-09-18T08:18:26;32.62;37.23
66752;SHT31;53663;42.676;23.238;2023-09-18T08:20:53;33.33;35.81
66752;SHT31;53663;42.676;23.238;2023-09-18T08:23:20;33.07;35.97
66752;SHT31;53663;42.676;23.238;2023-09-18T08:25:45;34.00;34.38
66752;SHT31;53663;42.676;23.238;2023-09-18T08:28:12;33.64;35.03
66752;SHT31;53663;42.676;23.238;2023-09-18T08:30:40;34.04;34.46
66752;SHT31;53663;42.676;23.238;2023-09-18T08:33:06;34.71;34.03
66752;SHT31;53663;42.676;23.238;2023-09-18T08:35:31;34.50;32.64
66752;SHT31;53663;42.676;23.238;2023-09-18T08:37:57;34.15;34.15
66752;SHT31;53663;42.676;23.238;2023-09-18T08:40:23;34.45;33.49
66752;SHT31;53663;42.676;23.238;2023-09-18T08:42:51;34.22;33.14
66752;SHT31;53663;42.676;23.238;2023-09-18T08:45:35;34.18;34.32
66752;SHT31;53663;42.676;23.238;2023-09-18T08:48:01;33.33;35.87
66752;SHT31;53663;42.676;23.238;2023-09-18T08:50:28;32.96;35.83
66752;SHT31;53663;42.676;23.238;2023-09-18T08:52:54;32.79;35.71
66752;SHT31;53663;42.676;23.238;2023-09-18T08:55:20;30.76;38.75
66752;SHT31;53663;42.676;23.238;2023-09-18T08:57:46;30.37;40.13
66752;SHT31;53663;42.676;23.238;2023-09-18T09:00:12;30.18;40.82
66752;SHT31;53663;42.676;23.238;2023-09-18T09:02:43;30.13;41.37
66752;SHT31;53663;42.676;23.238;2023-09-18T09:05:08;29.82;41.19
66752;SHT31;53663;42.676;23.238;2023-09-18T09:07:34;29.57;41.90
66752;SHT31;53663;42.676;23.238;2023-09-18T09:10:00;29.04;42.98
66752;SHT31;53663;42.676;23.238;2023-09-18T09:15:14;28.83;42.94
66752;SHT31;53663;42.676;23.238;2023-09-18T09:17:41;28.25;44.91
66752;SHT31;53663;42.676;23.238;2023-09-18T09:20:14;28.37;43.41
66752;SHT31;53663;42.676;23.238;2023-09-18T09:22:41;28.20;43.60
66752;SHT31;53663;42.676;23.238;2023-09-18T09:25:22;28.10;44.55
66752;SHT31;53663;42.676;23.238;2023-09-18T09:27:49;28.27;43.28
66752;SHT31;53663;42.676;23.238;2023-09-18T09:30:19;28.18;43.81
66752;SHT31;53663;42.676;23.238;2023-09-18T09:32:48;27.66;44.58
66752;SHT31;53663;42.676;23.238;2023-09-18T09:35:35;27.63;44.37
66752;SHT31;53663;42.676;23.238;2023-09-18T09:38:11;27.10;45.88
66752;SHT31;53663;42.676;23.238;2023-09-18T09:40:41;26.80;45.53
66752;SHT31;53663;42.676;23.238;2023-09-18T09:43:08;27.00;45.50
66752;SHT31;53663;42.676;23.238;2023-09-18T09:45:34;27.08;44.38
66752;SHT31;53663;42.676;23.238;2023-09-18T09:48:03;27.43;43.72
66752;SHT31;53663;42.676;23.238;2023-09-18T09:50:30;27.05;42.46
66752;SHT31;53663;42.676;23.238;2023-09-18T09:52:55;26.90;43.56
66752;SHT31;53663;42.676;23.238;2023-09-18T09:55:33;26.94;43.76
66752;SHT31;53663;42.676;23.238;2023-09-18T09:58:01;26.86;45.21
66752;SHT31;53663;42.676;23.238;2023-09-18T10:03:16;27.19;43.85
66752;SHT31;53663;42.676;23.238;2023-09-18T10:05:44;26.91;45.23
66752;SHT31;53663;42.676;23.238;2023-09-18T10:08:16;27.34;43.71
66752;SHT31;53663;42.676;23.238;2023-09-18T10:10:46;27.42;44.42
66752;SHT31;53663;42.676;23.238;2023-09-18T10:13:18;26.83;43.75
66752;SHT31;53663;42.676;23.238;2023-09-18T10:15:46;27.10;43.91
66752;SHT31;53663;42.676;23.238;2023-09-18T10:26:51;25.96;44.99
66752;SHT31;53663;42.676;23.238;2023-09-18T10:29:22;25.98;45.26
66752;SHT31;53663;42.676;23.238;2023-09-18T10:31:50;25.38;46.34
66752;SHT31;53663;42.676;23.238;2023-09-18T10:34:16;25.47;45.48
66752;SHT31;53663;42.676;23.238;2023-09-18T10:36:42;25.02;46.92
66752;SHT31;53663;42.676;23.238;2023-09-18T10:39:09;25.33;47.21
66752;SHT31;53663;42.676;23.238;2023-09-18T10:41:38;25.19;47.77
66752;SHT31;53663;42.676;23.238;2023-09-18T10:44:04;25.26;47.18
66752;SHT31;53663;42.676;23.238;2023-09-18T10:46:31;25.17;47.29
66752;SHT31;53663;42.676;23.238;2023-09-18T10:49:01;25.46;46.34
66752;SHT31;53663;42.676;23.238;2023-09-18T10:51:29;25.57;46.12
66752;SHT31;53663;42.676;23.238;2023-09-18T10:53:56;26.08;45.63
66752;SHT31;53663;42.676;23.238;2023-09-18T10:56:22;26.11;44.92
66752;SHT31;53663;42.676;23.238;2023-09-18T10:58:57;26.04;45.29
66752;SHT31;53663;42.676;23.238;2023-09-18T11:01:23;25.61;46.47
66752;SHT31;53663;42.676;23.238;2023-09-18T11:03:52;25.88;46.44
66752;SHT31;53663;42.676;23.238;2023-09-18T11:06:18;26.05;45.10
66752;SHT31;53663;42.676;23.238;2023-09-18T11:08:49;26.35;45.65
66752;SHT31;53663;42.676;23.238;2023-09-18T11:11:18;26.33;43.98
66752;SHT31;53663;42.676;23.238;2023-09-18T11:13:51;26.36;43.46
66752;SHT31;53663;42.676;23.238;2023-09-18T11:19:05;26.81;45.17
66752;SHT31;53663;42.676;23.238;2023-09-18T11:21:33;26.98;43.20
66752;SHT31;53663;42.676;23.238;2023-09-18T11:24:06;26.49;44.00
66752;SHT31;53663;42.676;23.238;2023-09-18T11:26:39;26.31;44.68
66752;SHT31;53663;42.676;23.238;2023-09-18T11:31:45;26.12;44.24
66752;SHT31;53663;42.676;23.238;2023-09-18T11:36:41;26.71;43.02
66752;SHT31;53663;42.676;23.238;2023-09-18T11:39:07;26.52;43.25
66752;SHT31;53663;42.676;23.238;2023-09-18T11:41:35;26.36;43.15
66752;SHT31;53663;42.676;23.238;2023-09-18T11:46:39;26.44;42.86
66752;SHT31;53663;42.676;23.238;2023-09-18T11:49:08;26.11;43.38
66752;SHT31;53663;42.676;23.238;2023-09-18T11:51:36;26.08;44.91
66752;SHT31;53663;42.676;23.238;2023-09-18T11:54:03;26.35;43.61
66752;SHT31;53663;42.676;23.238;2023-09-18T11:56:31;25.98;44.36
66752;SHT31;53663;42.676;23.238;2023-09-18T11:58:57;25.81;44.47
66752;SHT31;53663;42.676;23.238;2023-09-18T12:01:24;25.74;44.15
66752;SHT31;53663;42.676;23.238;2023-09-18T12:03:54;25.37;45.10
66752;SHT31;53663;42.676;23.238;2023-09-18T12:06:20;25.60;44.97
66752;SHT31;53663;42.676;23.238;2023-09-18T12:08:46;25.75;44.52
66752;SHT31;53663;42.676;23.238;2023-09-18T12:11:12;25.51;44.71
66752;SHT31;53663;42.676;23.238;2023-09-18T12:13:43;25.68;46.07
66752;SHT31;53663;42.676;23.238;2023-09-18T12:16:08;25.84;44.44
66752;SHT31;53663;42.676;23.238;2023-09-18T12:18:35;26.11;44.00
66752;SHT31;53663;42.676;23.238;2023-09-18T12:21:05;26.18;42.64
66752;SHT31;53663;42.676;23.238;2023-09-18T12:23:38;26.12;43.19
66752;SHT31;53663;42.676;23.238;2023-09-18T12:26:04;26.43;42.94
66752;SHT31;53663;42.676;23.238;2023-09-18T12:28:35;26.63;42.08
66752;SHT31;53663;42.676;23.238;2023-09-18T12:31:02;26.40;43.41
66752;SHT31;53663;42.676;23.238;2023-09-18T12:33:35;26.54;43.17
66752;SHT31;53663;42.676;23.238;2023-09-18T12:36:03;26.57;43.12
66752;SHT31;53663;42.676;23.238;2023-09-18T12:38:29;26.74;42.60
66752;SHT31;53663;42.676;23.238;2023-09-18T12:40:55;26.69;42.48
66752;SHT31;53663;42.676;23.238;2023-09-18T12:43:22;26.11;43.86
66752;SHT31;53663;42.676;23.238;2023-09-18T12:45:49;26.26;44.30
66752;SHT31;53663;42.676;23.238;2023-09-18T12:48:15;26.11;45.32
66752;SHT31;53663;42.676;23.238;2023-09-18T12:50:41;26.26;45.83
66752;SHT31;53663;42.676;23.238;2023-09-18T12:53:08;25.63;45.80
66752;SHT31;53663;42.676;23.238;2023-09-18T12:55:34;25.37;46.57
66752;SHT31;53663;42.676;23.238;2023-09-18T12:58:00;25.47;47.07
66752;SHT31;53663;42.676;23.238;2023-09-18T13:00:31;25.48;46.41
66752;SHT31;53663;42.676;23.238;2023-09-18T13:02:56;25.34;46.73
66752;SHT31;53663;42.676;23.238;2023-09-18T13:05:23;25.26;47.13
66752;SHT31;53663;42.676;23.238;2023-09-18T13:07:53;25.54;47.24
66752;SHT31;53663;42.676;23.238;2023-09-18T13:10:19;25.51;46.22
66752;SHT31;53663;42.676;23.238;2023-09-18T13:12:52;25.24;47.04
66752;SHT31;53663;42.676;23.238;2023-09-18T13:15:29;25.55;47.44
66752;SHT31;53663;42.676;23.238;2023-09-18T13:17:56;25.64;45.49
66752;SHT31;53663;42.676;23.238;2023-09-18T13:20:24;25.58;45.91
66752;SHT31;53663;42.676;23.238;2023-09-18T13:22:52;25.68;45.80
66752;SHT31;53663;42.676;23.238;2023-09-18T13:25:28;25.24;46.74
66752;SHT31;53663;42.676;23.238;2023-09-18T13:27:54;25.20;46.58
66752;SHT31;53663;42.676;23.238;2023-09-18T13:30:20;25.06;46.86
66752;SHT31;53663;42.676;23.238;2023-09-18T13:32:51;25.23;47.34
66752;SHT31;53663;42.676;23.238;2023-09-18T13:35:17;25.64;47.76
66752;SHT31;53663;42.676;23.238;2023-09-18T13:37:43;26.01;46.15
66752;SHT31;53663;42.676;23.238;2023-09-18T13:40:10;26.32;45.70
66752;SHT31;53663;42.676;23.238;2023-09-18T13:42:37;26.21;45.98
66752;SHT31;53663;42.676;23.238;2023-09-18T13:45:04;26.16;45.79
66752;SHT31;53663;42.676;23.238;2023-09-18T13:47:31;26.22;45.15
66752;SHT31;53663;42.676;23.238;2023-09-18T13:49:57;25.99;45.03
66752;SHT31;53663;42.676;23.238;2023-09-18T13:52:29;25.68;45.58
66752;SHT31;53663;42.676;23.238;2023-09-18T13:54:55;25.55;46.26
66752;SHT31;53663;42.676;23.238;2023-09-18T13:57:20;25.38;46.10
66752;SHT31;53663;42.676;23.238;2023-09-18T13:59:47;25.38;46.18
66752;SHT31;53663;42.676;23.238;2023-09-18T14:02:14;25.33;46.89
66752;SHT31;53663;42.676;23.238;2023-09-18T14:04:40;25.30;46.65
66752;SHT31;53663;42.676;23.238;2023-09-18T14:07:06;25.41;46.44
66752;SHT31;53663;42.676;23.238;2023-09-18T14:09:31;25.41;45.82
66752;SHT31;53663;42.676;23.238;2023-09-18T14:11:57;25.31;46.45
66752;SHT31;53663;42.676;23.238;2023-09-18T14:14:22;25.31;46.15
66752;SHT31;53663;42.676;23.238;2023-09-18T14:16:48;25.20;46.27
66752;SHT31;53663;42.676;23.238;2023-09-18T14:19:16;25.24;46.09
66752;SHT31;53663;42.676;23.238;2023-09-18T14:21:42;24.86;47.00
66752;SHT31;53663;42.676;23.238;2023-09-18T14:24:08;24.73;47.21
66752;SHT31;53663;42.676;23.238;2023-09-18T14:26:34;24.69;47.81
66752;SHT31;53663;42.676;23.238;2023-09-18T14:29:09;24.58;47.58
66752;SHT31;53663;42.676;23.238;2023-09-18T14:31:38;24.42;48.26
66752;SHT31;53663;42.676;23.238;2023-09-18T14:34:03;24.58;48.55
66752;SHT31;53663;42.676;23.238;2023-09-18T14:36:32;24.55;48.04
66752;SHT31;53663;42.676;23.238;2023-09-18T14:39:02;24.52;48.35
66752;SHT31;53663;42.676;23.238;2023-09-18T14:41:27;24.48;48.37
66752;SHT31;53663;42.676;23.238;2023-09-18T14:43:53;24.34;49.01
66752;SHT31;53663;42.676;23.238;2023-09-18T14:46:19;24.34;48.61
66752;SHT31;53663;42.676;23.238;2023-09-18T14:48:45;24.22;48.89
66752;SHT31;53663;42.676;23.238;2023-09-18T14:51:11;24.30;48.23
66752;SHT31;53663;42.676;23.238;2023-09-18T14:53:37;24.11;48.31
66752;SHT31;53663;42.676;23.238;2023-09-18T14:56:02;24.06;48.61
66752;SHT31;53663;42.676;23.238;2023-09-18T14:58:39;24.06;50.73
66752;SHT31;53663;42.676;23.238;2023-09-18T15:01:04;24.07;51.15
66752;SHT31;53663;42.676;23.238;2023-09-18T15:03:32;24.11;51.32
66752;SHT31;53663;42.676;23.238;2023-09-18T15:05:57;23.94;51.36
66752;SHT31;53663;42.676;23.238;2023-09-18T15:08:23;23.93;51.33
66752;SHT31;53663;42.676;23.238;2023-09-18T15:10:48;23.87;51.51
66752;SHT31;53663;42.676;23.238;2023-09-18T15:13:14;23.84;51.74
66752;SHT31;53663;42.676;23.238;2023-09-18T15:15:40;23.82;51.67
66752;SHT31;53663;42.676;23.238;2023-09-18T15:18:06;23.65;52.16
66752;SHT31;53663;42.676;23.238;2023-09-18T15:20:32;23.66;52.12
66752;SHT31;53663;42.676;23.238;2023-09-18T15:22:57;23.56;52.40
66752;SHT31;53663;42.676;23.238;2023-09-18T15:25:23;23.59;52.16
66752;SHT31;53663;42.676;23.238;2023-09-18T15:27:49;23.62;52.22
66752;SHT31;53663;42.676;23.238;2023-09-18T15:30:14;23.63;52.37
66752;SHT31;53663;42.676;23.238;2023-09-18T15:32:53;23.53;52.28
66752;SHT31;53663;42.676;23.238;2023-09-18T15:35:22;23.45;52.40
66752;SHT31;53663;42.676;23.238;2023-09-18T15:37:49;23.39;52.38
66752;SHT31;53663;42.676;23.238;2023-09-18T15:40:15;23.35;52.68